Time;durP1;ratioP1;P1;durP2;ratioP2;P2;SDS_P1;SDS_P2;PMS_P1;PMS_P2;Temp;Humidity;BMP_temperature;BMP_pressure;BME280_temperature;BME280_humidity;BME280_pressure;Samples;Min_cycle;Max_cycle;Signal;HPM_P1;HPM_P2
2021/12/09 19:50:26;;;;;;;7.43;1.90;;;;;;;;;;5036298;28;20717;-77
2021/12/09 19:52:53;;;;;;;8.35;1.52;;;;;;;;;;5033133;28;20059;-74
2021/12/09 19:55:22;;;;;;;6.00;1.70;;;;;;;;;;5019256;28;20704;-79
2021/12/09 19:57:50;;;;;;;4.28;2.00;;;;;;;;;;5067011;28;20049;-76
2021/12/09 20:00:23;;;;;;;5.15;2.10;;;;;;;;;;5037872;28;20434;-76
2021/12/09 20:02:50;;;;;;;4.03;1.80;;;;;;;;;;5037597;28;20075;-76
2021/12/09 20:05:17;;;;;;;4.13;2.00;;;;;;;;;;5034701;28;20155;-78
2021/12/09 20:07:46;;;;;;;3.35;1.88;;;;;;;;;;5040781;28;20049;-77
2021/12/09 20:10:14;;;;;;;9.15;2.20;;;;;;;;;;5043813;28;20093;-74
2021/12/09 20:12:40;;;;;;;3.45;2.00;;;;;;;;;;5040394;28;20048;-76
2021/12/09 20:15:08;;;;;;;3.80;1.67;;;;;;;;;;5041369;28;20056;-74
2021/12/09 20:17:35;;;;;;;4.70;2.05;;;;;;;;;;5039400;28;20046;-75
2021/12/09 20:20:04;;;;;;;4.55;2.00;;;;;;;;;;5040709;28;20540;-74
2021/12/09 20:22:30;;;;;;;6.80;1.83;;;;;;;;;;5039421;28;20123;-77
2021/12/09 20:24:57;;;;;;;4.50;1.70;;;;;;;;;;5036284;28;20057;-75
2021/12/09 20:27:24;;;;;;;5.45;1.95;;;;;;;;;;5033428;28;20572;-75
2021/12/09 20:29:50;;;;;;;5.15;1.92;;;;;;;;;;5034109;28;20526;-74
2021/12/09 20:32:17;;;;;;;4.45;1.88;;;;;;;;;;5036892;28;20067;-74
2021/12/09 20:34:44;;;;;;;7.45;2.20;;;;;;;;;;5035897;28;20577;-76
2021/12/09 20:37:11;;;;;;;3.13;1.73;;;;;;;;;;5031034;28;20041;-74
2021/12/09 20:39:38;;;;;;;4.45;1.67;;;;;;;;;;5035753;28;20052;-73
2021/12/09 20:42:06;;;;;;;3.22;1.70;;;;;;;;;;5036461;28;20052;-75
2021/12/09 20:44:32;;;;;;;5.03;1.92;;;;;;;;;;5035704;28;20446;-73
2021/12/09 20:46:59;;;;;;;5.07;2.03;;;;;;;;;;5030278;28;20070;-75
2021/12/09 20:49:26;;;;;;;7.90;1.95;;;;;;;;;;5031050;28;20061;-73
2021/12/09 20:51:53;;;;;;;4.32;1.98;;;;;;;;;;5019295;28;20235;-75
2021/12/09 20:54:20;;;;;;;4.22;2.13;;;;;;;;;;5005197;28;20142;-77
2021/12/09 20:56:46;;;;;;;4.05;2.05;;;;;;;;;;5004861;28;20221;-75
2021/12/09 20:59:15;;;;;;;4.85;1.88;;;;;;;;;;5024190;28;20048;-73
2021/12/09 21:01:44;;;;;;;2.78;1.60;;;;;;;;;;5021522;28;20060;-74
2021/12/09 21:04:10;;;;;;;4.78;1.95;;;;;;;;;;5018433;28;20064;-74
2021/12/09 21:06:37;;;;;;;2.47;1.48;;;;;;;;;;5019938;28;20389;-72
2021/12/09 21:09:05;;;;;;;5.20;1.95;;;;;;;;;;5025046;28;20984;-75
2021/12/09 21:11:34;;;;;;;4.32;1.67;;;;;;;;;;5023290;28;20168;-74
2021/12/09 21:14:01;;;;;;;4.47;1.88;;;;;;;;;;5024564;28;20905;-74
2021/12/09 21:16:30;;;;;;;3.80;1.63;;;;;;;;;;5023577;28;20142;-74
2021/12/09 21:19:00;;;;;;;4.03;1.65;;;;;;;;;;5020545;28;20141;-76
2021/12/09 21:21:29;;;;;;;7.10;2.03;;;;;;;;;;5018285;28;20091;-74
2021/12/09 21:23:56;;;;;;;4.03;1.67;;;;;;;;;;5019425;28;20766;-74
2021/12/09 21:26:25;;;;;;;3.58;1.63;;;;;;;;;;5021707;28;20450;-78
2021/12/09 21:28:52;;;;;;;3.15;1.80;;;;;;;;;;5020849;28;20048;-74
2021/12/09 21:31:19;;;;;;;3.38;1.55;;;;;;;;;;5023114;28;20052;-76
2021/12/09 21:33:49;;;;;;;4.53;1.67;;;;;;;;;;5019053;28;20048;-75
2021/12/09 21:36:17;;;;;;;3.85;1.50;;;;;;;;;;5021744;28;20140;-73
2021/12/09 21:38:43;;;;;;;3.53;1.50;;;;;;;;;;5019353;28;20049;-73
2021/12/09 21:41:10;;;;;;;5.13;1.55;;;;;;;;;;5023492;28;20055;-75
2021/12/09 21:43:38;;;;;;;3.30;1.40;;;;;;;;;;5015691;28;20687;-75
2021/12/09 21:46:04;;;;;;;8.82;1.55;;;;;;;;;;5025824;28;20894;-72
2021/12/09 21:48:31;;;;;;;3.10;1.38;;;;;;;;;;5022974;28;20154;-75
2021/12/09 21:50:58;;;;;;;4.85;1.77;;;;;;;;;;5025449;28;20091;-79
2021/12/09 21:53:24;;;;;;;2.30;1.40;;;;;;;;;;5021811;28;20462;-77
2021/12/09 21:55:50;;;;;;;3.00;1.77;;;;;;;;;;5021678;28;20057;-77
2021/12/09 21:58:18;;;;;;;2.50;1.33;;;;;;;;;;5020555;28;20072;-78
2021/12/09 22:00:45;;;;;;;4.05;1.40;;;;;;;;;;5025136;28;20455;-76
2021/12/09 22:03:11;;;;;;;2.17;1.38;;;;;;;;;;5027944;28;20048;-76
2021/12/09 22:05:40;;;;;;;2.17;1.30;;;;;;;;;;5025309;28;20052;-76
2021/12/09 22:08:07;;;;;;;5.20;2.38;;;;;;;;;;5023944;28;21349;-76
2021/12/09 22:10:34;;;;;;;4.68;1.63;;;;;;;;;;5029691;28;20711;-74
2021/12/09 22:13:03;;;;;;;3.58;1.50;;;;;;;;;;5026716;28;20401;-79
2021/12/09 22:15:30;;;;;;;4.68;1.38;;;;;;;;;;5025232;28;20045;-74
2021/12/09 22:17:56;;;;;;;3.20;1.30;;;;;;;;;;5019901;28;20061;-77
2021/12/09 22:20:23;;;;;;;4.97;1.60;;;;;;;;;;5005191;28;20111;-77
2021/12/09 22:22:49;;;;;;;8.10;1.73;;;;;;;;;;5021720;28;20514;-74
2021/12/09 22:25:15;;;;;;;3.67;1.35;;;;;;;;;;5021481;28;20856;-77
2021/12/09 22:27:42;;;;;;;3.33;1.50;;;;;;;;;;5020626;28;20060;-76
2021/12/09 22:30:09;;;;;;;2.90;1.17;;;;;;;;;;5025017;28;20500;-74
2021/12/09 22:32:35;;;;;;;5.53;1.55;;;;;;;;;;5021515;28;20053;-77
2021/12/09 22:35:03;;;;;;;3.58;1.20;;;;;;;;;;5025387;28;20051;-78
2021/12/09 22:37:29;;;;;;;2.70;1.10;;;;;;;;;;5018859;28;21112;-78
2021/12/09 22:39:55;;;;;;;2.85;1.30;;;;;;;;;;5023654;28;20146;-78
2021/12/09 22:42:21;;;;;;;5.90;1.30;;;;;;;;;;5022093;28;20049;-77
2021/12/09 22:44:49;;;;;;;4.63;1.45;;;;;;;;;;5021717;28;20064;-74
2021/12/09 22:47:18;;;;;;;2.75;1.40;;;;;;;;;;5016952;28;21746;-77
2021/12/09 22:49:48;;;;;;;3.00;1.40;;;;;;;;;;5021540;28;20057;-75
2021/12/09 22:52:18;;;;;;;2.53;1.30;;;;;;;;;;5021022;28;20049;-76
2021/12/09 22:54:44;;;;;;;2.28;1.30;;;;;;;;;;5025671;28;20175;-75
2021/12/09 22:57:11;;;;;;;3.35;1.42;;;;;;;;;;5027044;28;20057;-74
2021/12/09 22:59:37;;;;;;;5.10;1.60;;;;;;;;;;5022982;28;20090;-73
2021/12/09 23:02:04;;;;;;;9.38;1.30;;;;;;;;;;5022166;28;20068;-76
2021/12/09 23:04:30;;;;;;;3.85;1.55;;;;;;;;;;5026145;28;20179;-73
2021/12/09 23:06:59;;;;;;;4.07;1.35;;;;;;;;;;5020481;28;20214;-74
2021/12/09 23:09:28;;;;;;;3.92;1.20;;;;;;;;;;5022351;28;20110;-76
2021/12/09 23:11:55;;;;;;;5.57;1.58;;;;;;;;;;5020342;28;20118;-76
2021/12/09 23:14:36;;;;;;;3.25;1.25;;;;;;;;;;5021210;28;20132;-77
2021/12/09 23:17:07;;;;;;;5.13;1.23;;;;;;;;;;5019198;28;20052;-75
2021/12/09 23:19:35;;;;;;;2.30;1.02;;;;;;;;;;5028505;28;20053;-77
2021/12/09 23:22:05;;;;;;;2.30;1.25;;;;;;;;;;5025396;28;20755;-77
2021/12/09 23:24:32;;;;;;;2.83;1.08;;;;;;;;;;5024443;28;20072;-74
2021/12/09 23:26:59;;;;;;;5.65;1.10;;;;;;;;;;5019615;28;20142;-74
2021/12/09 23:29:25;;;;;;;3.00;1.23;;;;;;;;;;5009144;28;20045;-78
2021/12/09 23:31:52;;;;;;;3.58;1.30;;;;;;;;;;5006371;28;20111;-74
2021/12/09 23:34:19;;;;;;;4.38;1.30;;;;;;;;;;5024010;28;20084;-76
2021/12/09 23:36:46;;;;;;;12.27;1.73;;;;;;;;;;5022114;28;20538;-73
2021/12/09 23:39:13;;;;;;;5.35;1.30;;;;;;;;;;5023987;28;20079;-77
2021/12/09 23:41:41;;;;;;;3.60;1.23;;;;;;;;;;5020509;28;20045;-74
2021/12/09 23:44:10;;;;;;;4.25;1.20;;;;;;;;;;5003384;28;20060;-74
2021/12/09 23:46:39;;;;;;;4.90;1.63;;;;;;;;;;5024914;28;20387;-75
2021/12/09 23:49:09;;;;;;;7.18;1.50;;;;;;;;;;5016034;28;20056;-73
2021/12/09 23:51:43;;;;;;;8.40;1.40;;;;;;;;;;5032947;28;20117;-76
2021/12/09 23:54:11;;;;;;;5.05;1.27;;;;;;;;;;5033561;28;20052;-74
2021/12/09 23:56:38;;;;;;;3.95;1.52;;;;;;;;;;5027006;28;20706;-75
2021/12/09 23:59:06;;;;;;;5.45;1.52;;;;;;;;;;5025393;28;20052;-78
